sensor_id;sensor_type;location;lat;lon;timestamp;pressure;altitude;pressure_sealevel;temperature;humidity
78800;BME280;68148;55.328;86.106;2023-04-07T00:01:12;98901.16;;;0.18;64.44
78800;BME280;68148;55.328;86.106;2023-04-07T00:03:38;98896.19;;;0.24;65.27
78800;BME280;68148;55.328;86.106;2023-04-07T00:06:04;98921.72;;;0.29;64.91
78800;BME280;68148;55.328;86.106;2023-04-07T00:08:30;98918.47;;;0.27;64.63
78800;BME280;68148;55.328;86.106;2023-04-07T00:10:56;98905.59;;;0.25;64.46
78800;BME280;68148;55.328;86.106;2023-04-07T00:13:22;98912.31;;;0.28;65.26
78800;BME280;68148;55.328;86.106;2023-04-07T00:15:47;98889.88;;;0.37;64.54
78800;BME280;68148;55.328;86.106;2023-04-07T00:18:13;98902.81;;;0.46;64.72
78800;BME280;68148;55.328;86.106;2023-04-07T00:20:39;98897.97;;;0.61;64.28
78800;BME280;68148;55.328;86.106;2023-04-07T00:23:05;98875.47;;;0.80;64.15
78800;BME280;68148;55.328;86.106;2023-04-07T00:25:30;98881.28;;;0.91;63.24
78800;BME280;68148;55.328;86.106;2023-04-07T00:27:56;98876.56;;;1.05;62.77
78800;BME280;68148;55.328;86.106;2023-04-07T00:30:22;98878.13;;;1.15;62.67
78800;BME280;68148;55.328;86.106;2023-04-07T00:32:48;98873.06;;;1.14;62.99
78800;BME280;68148;55.328;86.106;2023-04-07T00:35:13;98872.09;;;1.15;63.36
78800;BME280;68148;55.328;86.106;2023-04-07T00:37:39;98865.66;;;1.19;62.81
78800;BME280;68148;55.328;86.106;2023-04-07T00:40:05;98867.22;;;1.12;62.92
78800;BME280;68148;55.328;86.106;2023-04-07T00:42:32;98873.25;;;1.12;63.26
78800;BME280;68148;55.328;86.106;2023-04-07T00:44:58;98875.84;;;1.12;63.15
78800;BME280;68148;55.328;86.106;2023-04-07T00:47:24;98870.47;;;1.14;63.00
78800;BME280;68148;55.328;86.106;2023-04-07T00:49:50;98875.75;;;1.22;62.91
78800;BME280;68148;55.328;86.106;2023-04-07T00:52:16;98865.59;;;1.29;62.87
78800;BME280;68148;55.328;86.106;2023-04-07T00:54:47;98858.91;;;1.44;62.19
78800;BME280;68148;55.328;86.106;2023-04-07T00:57:28;98862.53;;;1.51;62.59
78800;BME280;68148;55.328;86.106;2023-04-07T00:59:54;98866.03;;;1.60;61.87
78800;BME280;68148;55.328;86.106;2023-04-07T01:02:36;98856.50;;;1.68;61.84
78800;BME280;68148;55.328;86.106;2023-04-07T01:07:57;98860.84;;;1.86;61.17
78800;BME280;68148;55.328;86.106;2023-04-07T01:10:32;98870.06;;;1.98;61.03
78800;BME280;68148;55.328;86.106;2023-04-07T01:13:07;98863.47;;;2.12;60.76
78800;BME280;68148;55.328;86.106;2023-04-07T01:15:34;98851.16;;;2.22;60.43
78800;BME280;68148;55.328;86.106;2023-04-07T01:18:09;98854.13;;;2.27;60.63
78800;BME280;68148;55.328;86.106;2023-04-07T01:20:37;98856.09;;;2.33;60.34
78800;BME280;68148;55.328;86.106;2023-04-07T01:23:06;98857.59;;;2.44;59.62
78800;BME280;68148;55.328;86.106;2023-04-07T01:26:08;98862.03;;;2.51;59.50
78800;BME280;68148;55.328;86.106;2023-04-07T01:28:48;98859.31;;;2.61;59.28
78800;BME280;68148;55.328;86.106;2023-04-07T01:31:19;98853.50;;;2.75;58.59
78800;BME280;68148;55.328;86.106;2023-04-07T01:33:47;98854.19;;;2.86;58.42
78800;BME280;68148;55.328;86.106;2023-04-07T01:36:16;98851.28;;;2.97;58.35
78800;BME280;68148;55.328;86.106;2023-04-07T01:38:44;98852.28;;;2.96;58.05
78800;BME280;68148;55.328;86.106;2023-04-07T01:41:10;98842.81;;;3.03;58.06
78800;BME280;68148;55.328;86.106;2023-04-07T01:43:38;98842.34;;;3.08;58.02
78800;BME280;68148;55.328;86.106;2023-04-07T01:46:05;98842.50;;;3.06;57.82
78800;BME280;68148;55.328;86.106;2023-04-07T01:48:31;98848.22;;;3.10;57.12
78800;BME280;68148;55.328;86.106;2023-04-07T01:50:59;98837.13;;;3.16;57.49
78800;BME280;68148;55.328;86.106;2023-04-07T01:53:25;98839.75;;;3.24;56.97
78800;BME280;68148;55.328;86.106;2023-04-07T01:55:53;98836.66;;;3.29;56.55
78800;BME280;68148;55.328;86.106;2023-04-07T01:58:19;98830.00;;;3.34;56.29
78800;BME280;68148;55.328;86.106;2023-04-07T02:00:44;98833.09;;;3.46;56.89
78800;BME280;68148;55.328;86.106;2023-04-07T02:03:14;98837.00;;;3.58;56.66
78800;BME280;68148;55.328;86.106;2023-04-07T02:05:42;98840.09;;;3.62;56.13
78800;BME280;68148;55.328;86.106;2023-04-07T02:08:10;98832.09;;;3.71;55.87
78800;BME280;68148;55.328;86.106;2023-04-07T02:10:36;98836.31;;;3.89;55.78
78800;BME280;68148;55.328;86.106;2023-04-07T02:13:06;98833.69;;;3.97;55.32
78800;BME280;68148;55.328;86.106;2023-04-07T02:15:33;98825.38;;;4.01;55.49
78800;BME280;68148;55.328;86.106;2023-04-07T02:18:00;98828.13;;;4.08;54.68
78800;BME280;68148;55.328;86.106;2023-04-07T02:20:28;98830.06;;;4.22;55.15
78800;BME280;68148;55.328;86.106;2023-04-07T02:22:55;98822.19;;;4.31;54.71
78800;BME280;68148;55.328;86.106;2023-04-07T02:25:25;98831.13;;;4.36;54.42
78800;BME280;68148;55.328;86.106;2023-04-07T02:27:53;98822.78;;;4.49;54.57
78800;BME280;68148;55.328;86.106;2023-04-07T02:30:20;98819.47;;;4.63;54.16
78800;BME280;68148;55.328;86.106;2023-04-07T02:32:45;98818.91;;;4.76;54.15
78800;BME280;68148;55.328;86.106;2023-04-07T02:35:12;98821.78;;;4.89;53.48
78800;BME280;68148;55.328;86.106;2023-04-07T02:37:38;98816.84;;;4.94;52.12
78800;BME280;68148;55.328;86.106;2023-04-07T02:40:05;98821.38;;;5.00;52.53
78800;BME280;68148;55.328;86.106;2023-04-07T02:42:31;98822.50;;;5.06;51.53
78800;BME280;68148;55.328;86.106;2023-04-07T02:44:57;98820.75;;;5.21;52.00
78800;BME280;68148;55.328;86.106;2023-04-07T02:47:24;98825.97;;;5.21;51.52
78800;BME280;68148;55.328;86.106;2023-04-07T02:49:50;98820.69;;;5.30;52.09
78800;BME280;68148;55.328;86.106;2023-04-07T02:52:16;98834.19;;;5.41;51.90
78800;BME280;68148;55.328;86.106;2023-04-07T02:54:42;98824.81;;;5.47;51.90
78800;BME280;68148;55.328;86.106;2023-04-07T02:57:08;98822.47;;;5.52;51.46
78800;BME280;68148;55.328;86.106;2023-04-07T02:59:34;98818.63;;;5.63;51.92
78800;BME280;68148;55.328;86.106;2023-04-07T03:01:59;98814.41;;;5.76;51.67
78800;BME280;68148;55.328;86.106;2023-04-07T03:04:27;98822.19;;;5.85;51.02
78800;BME280;68148;55.328;86.106;2023-04-07T03:06:53;98820.34;;;5.93;51.36
78800;BME280;68148;55.328;86.106;2023-04-07T03:09:19;98829.13;;;6.00;50.08
78800;BME280;68148;55.328;86.106;2023-04-07T03:11:44;98825.94;;;6.05;47.93
78800;BME280;68148;55.328;86.106;2023-04-07T03:14:10;98818.72;;;6.07;49.31
78800;BME280;68148;55.328;86.106;2023-04-07T03:16:36;98820.25;;;6.16;49.89
78800;BME280;68148;55.328;86.106;2023-04-07T03:19:02;98808.72;;;6.25;49.80
78800;BME280;68148;55.328;86.106;2023-04-07T03:21:27;98811.22;;;6.34;49.65
78800;BME280;68148;55.328;86.106;2023-04-07T03:23:53;98805.06;;;6.41;49.11
78800;BME280;68148;55.328;86.106;2023-04-07T03:26:19;98804.97;;;6.49;49.36
78800;BME280;68148;55.328;86.106;2023-04-07T03:28:45;98794.13;;;6.52;49.06
78800;BME280;68148;55.328;86.106;2023-04-07T03:31:11;98796.66;;;6.61;49.13
78800;BME280;68148;55.328;86.106;2023-04-07T03:33:37;98800.97;;;6.68;48.92
78800;BME280;68148;55.328;86.106;2023-04-07T03:36:03;98801.25;;;6.73;49.12
78800;BME280;68148;55.328;86.106;2023-04-07T03:38:28;98803.31;;;6.78;48.69
78800;BME280;68148;55.328;86.106;2023-04-07T03:40:55;98800.50;;;6.80;47.61
78800;BME280;68148;55.328;86.106;2023-04-07T03:43:22;98797.16;;;6.86;47.84
78800;BME280;68148;55.328;86.106;2023-04-07T03:45:47;98796.03;;;6.95;48.07
78800;BME280;68148;55.328;86.106;2023-04-07T03:48:13;98797.53;;;7.04;48.37
78800;BME280;68148;55.328;86.106;2023-04-07T03:50:39;98794.16;;;7.10;46.56
78800;BME280;68148;55.328;86.106;2023-04-07T03:53:06;98788.78;;;7.18;47.53
78800;BME280;68148;55.328;86.106;2023-04-07T03:55:35;98786.84;;;7.27;47.20
78800;BME280;68148;55.328;86.106;2023-04-07T03:58:02;98784.72;;;7.37;47.49
78800;BME280;68148;55.328;86.106;2023-04-07T04:00:28;98785.34;;;7.39;47.51
78800;BME280;68148;55.328;86.106;2023-04-07T04:02:55;98784.59;;;7.45;45.44
78800;BME280;68148;55.328;86.106;2023-04-07T04:05:21;98772.66;;;7.43;44.96
78800;BME280;68148;55.328;86.106;2023-04-07T04:07:47;98783.16;;;7.43;44.13
78800;BME280;68148;55.328;86.106;2023-04-07T04:10:13;98785.88;;;7.56;46.39
78800;BME280;68148;55.328;86.106;2023-04-07T04:12:39;98784.28;;;7.62;46.42
78800;BME280;68148;55.328;86.106;2023-04-07T04:15:05;98784.97;;;7.70;45.81
78800;BME280;68148;55.328;86.106;2023-04-07T04:17:31;98783.22;;;7.77;46.43
78800;BME280;68148;55.328;86.106;2023-04-07T04:19:57;98792.25;;;7.68;46.42
78800;BME280;68148;55.328;86.106;2023-04-07T04:22:23;98786.34;;;7.66;46.84
78800;BME280;68148;55.328;86.106;2023-04-07T04:24:48;98788.84;;;7.74;46.50
78800;BME280;68148;55.328;86.106;2023-04-07T04:27:14;98788.47;;;7.77;46.08
78800;BME280;68148;55.328;86.106;2023-04-07T04:29:40;98787.72;;;7.84;46.19
78800;BME280;68148;55.328;86.106;2023-04-07T04:32:06;98779.97;;;7.75;46.25
78800;BME280;68148;55.328;86.106;2023-04-07T04:34:32;98774.91;;;7.74;45.91
78800;BME280;68148;55.328;86.106;2023-04-07T04:36:58;98777.16;;;7.77;46.59
78800;BME280;68148;55.328;86.106;2023-04-07T04:39:24;98779.34;;;7.73;46.08
78800;BME280;68148;55.328;86.106;2023-04-07T04:41:50;98775.56;;;7.83;46.34
78800;BME280;68148;55.328;86.106;2023-04-07T04:44:16;98783.63;;;7.81;45.74
78800;BME280;68148;55.328;86.106;2023-04-07T04:46:42;98778.00;;;7.84;45.63
78800;BME280;68148;55.328;86.106;2023-04-07T04:49:07;98780.00;;;7.82;46.00
78800;BME280;68148;55.328;86.106;2023-04-07T04:51:33;98767.25;;;7.79;46.54
78800;BME280;68148;55.328;86.106;2023-04-07T04:53:59;98769.34;;;7.90;46.29
78800;BME280;68148;55.328;86.106;2023-04-07T04:56:25;98765.78;;;7.98;45.76
78800;BME280;68148;55.328;86.106;2023-04-07T04:58:51;98767.50;;;7.84;45.74
78800;BME280;68148;55.328;86.106;2023-04-07T05:01:16;98768.25;;;8.06;45.55
78800;BME280;68148;55.328;86.106;2023-04-07T05:03:43;98764.16;;;8.03;45.35
78800;BME280;68148;55.328;86.106;2023-04-07T05:06:09;98756.50;;;8.09;45.86
78800;BME280;68148;55.328;86.106;2023-04-07T05:08:35;98758.81;;;8.18;44.79
78800;BME280;68148;55.328;86.106;2023-04-07T05:11:00;98754.16;;;8.20;44.87
78800;BME280;68148;55.328;86.106;2023-04-07T05:13:26;98762.47;;;8.31;45.19
78800;BME280;68148;55.328;86.106;2023-04-07T05:15:53;98754.50;;;8.45;43.74
78800;BME280;68148;55.328;86.106;2023-04-07T05:18:19;98764.00;;;8.40;43.86
78800;BME280;68148;55.328;86.106;2023-04-07T05:20:47;98756.53;;;8.50;44.14
78800;BME280;68148;55.328;86.106;2023-04-07T05:23:13;98755.19;;;8.67;43.83
78800;BME280;68148;55.328;86.106;2023-04-07T05:25:42;98757.00;;;8.73;43.16
78800;BME280;68148;55.328;86.106;2023-04-07T05:28:08;98748.91;;;8.68;43.65
78800;BME280;68148;55.328;86.106;2023-04-07T05:30:34;98756.47;;;8.91;42.09
78800;BME280;68148;55.328;86.106;2023-04-07T05:32:59;98761.06;;;8.69;43.18
78800;BME280;68148;55.328;86.106;2023-04-07T05:35:25;98758.03;;;8.66;42.60
78800;BME280;68148;55.328;86.106;2023-04-07T05:37:51;98754.59;;;8.65;42.48
78800;BME280;68148;55.328;86.106;2023-04-07T05:40:17;98748.09;;;8.61;43.27
78800;BME280;68148;55.328;86.106;2023-04-07T05:42:42;98758.66;;;8.74;42.36
78800;BME280;68148;55.328;86.106;2023-04-07T05:45:09;98755.97;;;8.61;42.33
78800;BME280;68148;55.328;86.106;2023-04-07T05:47:35;98761.47;;;8.73;43.13
78800;BME280;68148;55.328;86.106;2023-04-07T05:50:01;98760.22;;;8.69;42.77
78800;BME280;68148;55.328;86.106;2023-04-07T05:52:27;98759.84;;;8.65;42.66
78800;BME280;68148;55.328;86.106;2023-04-07T05:54:52;98758.63;;;8.61;43.75
78800;BME280;68148;55.328;86.106;2023-04-07T05:57:18;98757.00;;;8.73;42.39
78800;BME280;68148;55.328;86.106;2023-04-07T05:59:50;98760.06;;;8.77;42.64
78800;BME280;68148;55.328;86.106;2023-04-07T06:02:16;98755.16;;;8.61;43.07
78800;BME280;68148;55.328;86.106;2023-04-07T06:04:41;98754.97;;;8.69;42.95
78800;BME280;68148;55.328;86.106;2023-04-07T06:07:07;98748.94;;;8.82;42.66
78800;BME280;68148;55.328;86.106;2023-04-07T06:09:33;98755.00;;;8.75;43.23
78800;BME280;68148;55.328;86.106;2023-04-07T06:11:59;98753.78;;;8.71;42.68
78800;BME280;68148;55.328;86.106;2023-04-07T06:14:26;98746.09;;;8.70;42.58
78800;BME280;68148;55.328;86.106;2023-04-07T06:16:52;98749.94;;;8.81;43.16
78800;BME280;68148;55.328;86.106;2023-04-07T06:19:17;98740.47;;;8.93;42.71
78800;BME280;68148;55.328;86.106;2023-04-07T06:21:43;98743.31;;;8.91;42.56
78800;BME280;68148;55.328;86.106;2023-04-07T06:24:09;98741.50;;;9.05;42.78
78800;BME280;68148;55.328;86.106;2023-04-07T06:26:35;98748.22;;;9.21;41.89
78800;BME280;68148;55.328;86.106;2023-04-07T06:29:01;98746.75;;;9.05;40.96
78800;BME280;68148;55.328;86.106;2023-04-07T06:31:27;98745.75;;;9.06;41.73
78800;BME280;68148;55.328;86.106;2023-04-07T06:33:53;98750.59;;;9.02;41.81
78800;BME280;68148;55.328;86.106;2023-04-07T06:36:19;98745.56;;;9.14;41.16
78800;BME280;68148;55.328;86.106;2023-04-07T06:38:45;98745.78;;;9.13;41.36
78800;BME280;68148;55.328;86.106;2023-04-07T06:41:11;98754.28;;;9.28;41.80
78800;BME280;68148;55.328;86.106;2023-04-07T06:43:38;98758.50;;;9.09;41.12
78800;BME280;68148;55.328;86.106;2023-04-07T06:46:04;98758.72;;;9.54;42.48
78800;BME280;68148;55.328;86.106;2023-04-07T06:48:31;98782.84;;;9.31;43.62
78800;BME280;68148;55.328;86.106;2023-04-07T06:50:57;98777.06;;;8.81;44.08
78800;BME280;68148;55.328;86.106;2023-04-07T06:53:23;98766.38;;;8.96;45.12
78800;BME280;68148;55.328;86.106;2023-04-07T06:56:01;98767.97;;;8.84;45.37
78800;BME280;68148;55.328;86.106;2023-04-07T06:58:27;98774.59;;;8.66;45.79
78800;BME280;68148;55.328;86.106;2023-04-07T07:00:55;98796.38;;;8.47;47.51
78800;BME280;68148;55.328;86.106;2023-04-07T07:03:21;98782.19;;;8.41;48.04
78800;BME280;68148;55.328;86.106;2023-04-07T07:05:47;98794.69;;;8.04;50.03
78800;BME280;68148;55.328;86.106;2023-04-07T07:08:13;98801.03;;;7.54;51.36
78800;BME280;68148;55.328;86.106;2023-04-07T07:10:38;98784.47;;;7.32;52.57
78800;BME280;68148;55.328;86.106;2023-04-07T07:13:04;98796.53;;;7.26;51.99
78800;BME280;68148;55.328;86.106;2023-04-07T07:15:30;98815.81;;;6.97;51.81
78800;BME280;68148;55.328;86.106;2023-04-07T07:17:56;98828.63;;;6.86;52.17
78800;BME280;68148;55.328;86.106;2023-04-07T07:20:23;98828.19;;;6.67;53.45
78800;BME280;68148;55.328;86.106;2023-04-07T07:22:48;98813.44;;;6.66;53.14
78800;BME280;68148;55.328;86.106;2023-04-07T07:25:14;98847.00;;;6.56;52.63
78800;BME280;68148;55.328;86.106;2023-04-07T07:27:40;98845.75;;;6.22;53.96
78800;BME280;68148;55.328;86.106;2023-04-07T07:30:06;98838.97;;;6.13;53.99
78800;BME280;68148;55.328;86.106;2023-04-07T07:32:34;98822.44;;;6.27;54.15
78800;BME280;68148;55.328;86.106;2023-04-07T07:34:59;98836.59;;;6.33;53.15
78800;BME280;68148;55.328;86.106;2023-04-07T07:37:25;98824.22;;;6.12;53.24
78800;BME280;68148;55.328;86.106;2023-04-07T07:39:51;98851.72;;;5.78;53.76
78800;BME280;68148;55.328;86.106;2023-04-07T07:42:17;98828.75;;;5.66;54.15
78800;BME280;68148;55.328;86.106;2023-04-07T07:44:43;98860.38;;;5.79;54.86
78800;BME280;68148;55.328;86.106;2023-04-07T07:47:09;98847.53;;;6.07;54.18
78800;BME280;68148;55.328;86.106;2023-04-07T07:49:35;98842.22;;;5.77;54.56
78800;BME280;68148;55.328;86.106;2023-04-07T07:52:01;98857.22;;;5.84;53.41
78800;BME280;68148;55.328;86.106;2023-04-07T07:54:26;98848.22;;;5.63;55.21
78800;BME280;68148;55.328;86.106;2023-04-07T07:56:55;98849.50;;;5.67;54.57
78800;BME280;68148;55.328;86.106;2023-04-07T07:59:21;98857.69;;;5.64;54.55
78800;BME280;68148;55.328;86.106;2023-04-07T08:01:47;98867.28;;;5.72;54.29
78800;BME280;68148;55.328;86.106;2023-04-07T08:04:13;98874.34;;;5.71;54.51
78800;BME280;68148;55.328;86.106;2023-04-07T08:06:39;98884.88;;;5.63;53.80
78800;BME280;68148;55.328;86.106;2023-04-07T08:09:05;98864.53;;;5.50;54.82
78800;BME280;68148;55.328;86.106;2023-04-07T08:11:31;98845.88;;;5.53;54.13
78800;BME280;68148;55.328;86.106;2023-04-07T08:13:58;98893.06;;;5.37;54.28
78800;BME280;68148;55.328;86.106;2023-04-07T08:16:23;98876.03;;;5.18;55.59
78800;BME280;68148;55.328;86.106;2023-04-07T08:18:50;98895.50;;;5.16;54.94
78800;BME280;68148;55.328;86.106;2023-04-07T08:21:15;98883.25;;;5.08;54.77
78800;BME280;68148;55.328;86.106;2023-04-07T08:23:42;98858.88;;;4.85;56.27
78800;BME280;68148;55.328;86.106;2023-04-07T08:26:08;98866.00;;;4.99;54.38
78800;BME280;68148;55.328;86.106;2023-04-07T08:28:34;98892.72;;;4.78;55.31
78800;BME280;68148;55.328;86.106;2023-04-07T08:30:59;98901.34;;;4.87;55.96
78800;BME280;68148;55.328;86.106;2023-04-07T08:33:25;98924.53;;;4.90;54.88
78800;BME280;68148;55.328;86.106;2023-04-07T08:35:51;98907.13;;;4.74;56.10
78800;BME280;68148;55.328;86.106;2023-04-07T08:38:17;98918.44;;;4.58;55.76
78800;BME280;68148;55.328;86.106;2023-04-07T08:40:43;98918.75;;;4.71;55.81
78800;BME280;68148;55.328;86.106;2023-04-07T08:43:09;98927.22;;;4.65;55.80
78800;BME280;68148;55.328;86.106;2023-04-07T08:45:39;98946.56;;;4.48;56.53
78800;BME280;68148;55.328;86.106;2023-04-07T08:48:26;98935.97;;;4.33;56.06
78800;BME280;68148;55.328;86.106;2023-04-07T08:50:55;98951.81;;;4.23;56.48
78800;BME280;68148;55.328;86.106;2023-04-07T08:53:28;98963.41;;;4.13;56.11
78800;BME280;68148;55.328;86.106;2023-04-07T08:55:59;98941.88;;;3.94;57.24
78800;BME280;68148;55.328;86.106;2023-04-07T08:58:26;98953.63;;;3.98;56.97
78800;BME280;68148;55.328;86.106;2023-04-07T09:00:52;98955.56;;;3.80;56.57
78800;BME280;68148;55.328;86.106;2023-04-07T09:03:18;98935.81;;;3.53;58.12
78800;BME280;68148;55.328;86.106;2023-04-07T09:05:49;98947.25;;;3.60;58.55
78800;BME280;68148;55.328;86.106;2023-04-07T09:08:15;98966.31;;;3.61;58.00
78800;BME280;68148;55.328;86.106;2023-04-07T09:10:41;98955.22;;;3.67;57.84
78800;BME280;68148;55.328;86.106;2023-04-07T09:13:09;98950.50;;;3.62;57.62
78800;BME280;68148;55.328;86.106;2023-04-07T09:15:35;98988.00;;;3.61;57.85
78800;BME280;68148;55.328;86.106;2023-04-07T09:18:03;98966.81;;;3.56;58.03
78800;BME280;68148;55.328;86.106;2023-04-07T09:21:02;98972.84;;;3.57;57.12
78800;BME280;68148;55.328;86.106;2023-04-07T09:23:30;98965.50;;;3.52;57.80
78800;BME280;68148;55.328;86.106;2023-04-07T09:25:59;98975.47;;;3.65;57.61
78800;BME280;68148;55.328;86.106;2023-04-07T09:28:42;98980.09;;;3.37;58.21
78800;BME280;68148;55.328;86.106;2023-04-07T09:31:08;98952.75;;;3.49;57.28
78800;BME280;68148;55.328;86.106;2023-04-07T09:33:36;98959.69;;;3.24;58.07
78800;BME280;68148;55.328;86.106;2023-04-07T09:36:03;98986.81;;;2.97;58.51
78800;BME280;68148;55.328;86.106;2023-04-07T09:38:37;98983.47;;;2.87;58.47
78800;BME280;68148;55.328;86.106;2023-04-07T09:41:05;99010.88;;;2.65;59.18
78800;BME280;68148;55.328;86.106;2023-04-07T09:43:43;99025.50;;;2.58;59.57
78800;BME280;68148;55.328;86.106;2023-04-07T09:46:12;99011.91;;;2.46;59.91
78800;BME280;68148;55.328;86.106;2023-04-07T09:48:38;99017.22;;;2.62;59.78
78800;BME280;68148;55.328;86.106;2023-04-07T09:51:11;99006.94;;;2.35;60.23
78800;BME280;68148;55.328;86.106;2023-04-07T09:53:48;99004.13;;;2.28;60.64
78800;BME280;68148;55.328;86.106;2023-04-07T09:56:16;99043.56;;;2.15;61.09
78800;BME280;68148;55.328;86.106;2023-04-07T09:58:45;99050.69;;;2.31;60.24
78800;BME280;68148;55.328;86.106;2023-04-07T10:01:13;99019.31;;;2.15;60.86
78800;BME280;68148;55.328;86.106;2023-04-07T10:03:40;99039.91;;;2.08;61.00
78800;BME280;68148;55.328;86.106;2023-04-07T10:06:06;99049.63;;;1.88;60.95
78800;BME280;68148;55.328;86.106;2023-04-07T10:08:34;99097.56;;;1.68;61.84
78800;BME280;68148;55.328;86.106;2023-04-07T10:11:00;99067.81;;;1.70;61.61
78800;BME280;68148;55.328;86.106;2023-04-07T10:13:27;99060.00;;;1.53;62.38
78800;BME280;68148;55.328;86.106;2023-04-07T10:15:54;99071.00;;;1.46;62.07
78800;BME280;68148;55.328;86.106;2023-04-07T10:18:22;99090.38;;;1.24;63.26
78800;BME280;68148;55.328;86.106;2023-04-07T10:20:53;99077.69;;;1.12;62.99
78800;BME280;68148;55.328;86.106;2023-04-07T10:23:38;99085.13;;;0.97;64.47
78800;BME280;68148;55.328;86.106;2023-04-07T10:26:06;99084.56;;;0.93;63.91
78800;BME280;68148;55.328;86.106;2023-04-07T10:28:39;99105.13;;;0.87;64.41
78800;BME280;68148;55.328;86.106;2023-04-07T10:31:06;99095.97;;;0.83;64.33
78800;BME280;68148;55.328;86.106;2023-04-07T10:33:51;99146.53;;;0.79;62.97
78800;BME280;68148;55.328;86.106;2023-04-07T10:36:18;99116.03;;;0.81;62.59
78800;BME280;68148;55.328;86.106;2023-04-07T10:41:32;99110.75;;;0.63;62.21
78800;BME280;68148;55.328;86.106;2023-04-07T10:43:58;99130.53;;;0.64;62.99
78800;BME280;68148;55.328;86.106;2023-04-07T10:46:24;99131.25;;;0.66;62.73
78800;BME280;68148;55.328;86.106;2023-04-07T10:49:08;99120.19;;;0.35;62.86
78800;BME280;68148;55.328;86.106;2023-04-07T10:51:34;99148.75;;;0.35;63.08
78800;BME280;68148;55.328;86.106;2023-04-07T10:57:07;99154.59;;;0.46;62.45
78800;BME280;68148;55.328;86.106;2023-04-07T10:59:33;99144.38;;;0.35;62.39
78800;BME280;68148;55.328;86.106;2023-04-07T11:04:49;99178.03;;;0.06;63.61
78800;BME280;68148;55.328;86.106;2023-04-07T11:07:15;99216.13;;;0.06;63.18
78800;BME280;68148;55.328;86.106;2023-04-07T11:09:40;99173.69;;;0.16;63.16
78800;BME280;68148;55.328;86.106;2023-04-07T11:12:07;99182.44;;;0.15;62.90
78800;BME280;68148;55.328;86.106;2023-04-07T11:14:33;99194.69;;;0.04;63.25
78800;BME280;68148;55.328;86.106;2023-04-07T11:17:02;99202.31;;;-0.05;63.84
78800;BME280;68148;55.328;86.106;2023-04-07T11:19:28;99199.84;;;-0.06;64.36
78800;BME280;68148;55.328;86.106;2023-04-07T11:22:16;99206.03;;;0.03;63.80
78800;BME280;68148;55.328;86.106;2023-04-07T11:24:44;99201.16;;;-0.21;63.91
78800;BME280;68148;55.328;86.106;2023-04-07T11:27:13;99211.31;;;-0.39;65.01
78800;BME280;68148;55.328;86.106;2023-04-07T11:29:40;99223.56;;;-0.51;65.19
78800;BME280;68148;55.328;86.106;2023-04-07T11:32:05;99223.16;;;-0.46;65.16
78800;BME280;68148;55.328;86.106;2023-04-07T11:34:34;99238.56;;;-0.45;65.25
78800;BME280;68148;55.328;86.106;2023-04-07T11:37:22;99237.81;;;-0.57;65.53
78800;BME280;68148;55.328;86.106;2023-04-07T11:39:53;99291.03;;;-0.73;64.47
78800;BME280;68148;55.328;86.106;2023-04-07T11:42:32;99266.00;;;-0.84;64.57
78800;BME280;68148;55.328;86.106;2023-04-07T11:44:59;99311.03;;;-0.96;63.91
78800;BME280;68148;55.328;86.106;2023-04-07T11:50:00;99278.69;;;-1.02;63.48
78800;BME280;68148;55.328;86.106;2023-04-07T11:52:26;99269.19;;;-1.13;64.18
78800;BME280;68148;55.328;86.106;2023-04-07T11:54:52;99272.44;;;-0.99;63.88
78800;BME280;68148;55.328;86.106;2023-04-07T11:57:26;99266.94;;;-1.06;62.68
78800;BME280;68148;55.328;86.106;2023-04-07T12:00:08;99269.16;;;-1.02;62.11
78800;BME280;68148;55.328;86.106;2023-04-07T12:02:34;99276.84;;;-1.11;61.60
78800;BME280;68148;55.328;86.106;2023-04-07T12:05:00;99289.75;;;-1.00;61.33
78800;BME280;68148;55.328;86.106;2023-04-07T12:07:28;99310.50;;;-1.11;59.46
78800;BME280;68148;55.328;86.106;2023-04-07T12:09:55;99338.19;;;-1.23;59.41
78800;BME280;68148;55.328;86.106;2023-04-07T12:12:27;99304.63;;;-1.24;59.26
78800;BME280;68148;55.328;86.106;2023-04-07T12:14:54;99308.19;;;-1.26;59.29
78800;BME280;68148;55.328;86.106;2023-04-07T12:17:27;99322.34;;;-1.41;60.32
78800;BME280;68148;55.328;86.106;2023-04-07T12:19:52;99341.16;;;-1.39;59.87
78800;BME280;68148;55.328;86.106;2023-04-07T12:22:19;99350.09;;;-1.43;60.13
78800;BME280;68148;55.328;86.106;2023-04-07T12:24:44;99338.00;;;-1.54;60.32
78800;BME280;68148;55.328;86.106;2023-04-07T12:27:10;99347.88;;;-1.47;59.10
78800;BME280;68148;55.328;86.106;2023-04-07T12:29:36;99375.25;;;-1.67;59.96
78800;BME280;68148;55.328;86.106;2023-04-07T12:32:05;99368.00;;;-1.62;59.66
78800;BME280;68148;55.328;86.106;2023-04-07T12:34:31;99385.41;;;-1.75;59.01
78800;BME280;68148;55.328;86.106;2023-04-07T12:36:57;99370.31;;;-1.82;59.75
78800;BME280;68148;55.328;86.106;2023-04-07T12:39:23;99352.44;;;-1.85;58.82
78800;BME280;68148;55.328;86.106;2023-04-07T12:41:49;99392.91;;;-1.84;58.11
78800;BME280;68148;55.328;86.106;2023-04-07T12:44:15;99384.19;;;-1.94;57.92
78800;BME280;68148;55.328;86.106;2023-04-07T12:46:41;99385.47;;;-1.99;58.31
78800;BME280;68148;55.328;86.106;2023-04-07T12:49:07;99392.41;;;-2.00;57.52
78800;BME280;68148;55.328;86.106;2023-04-07T12:51:33;99413.06;;;-2.11;57.54
78800;BME280;68148;55.328;86.106;2023-04-07T12:53:59;99390.25;;;-2.17;57.75
78800;BME280;68148;55.328;86.106;2023-04-07T12:56:25;99395.44;;;-2.17;57.83
78800;BME280;68148;55.328;86.106;2023-04-07T12:58:51;99414.78;;;-2.23;58.48
78800;BME280;68148;55.328;86.106;2023-04-07T13:01:17;99414.91;;;-2.24;59.42
78800;BME280;68148;55.328;86.106;2023-04-07T13:03:43;99413.25;;;-2.25;59.55
78800;BME280;68148;55.328;86.106;2023-04-07T13:06:09;99426.88;;;-2.35;60.99
78800;BME280;68148;55.328;86.106;2023-04-07T13:08:35;99424.34;;;-2.47;62.51
78800;BME280;68148;55.328;86.106;2023-04-07T13:11:01;99442.25;;;-2.57;63.18
78800;BME280;68148;55.328;86.106;2023-04-07T13:13:26;99453.69;;;-2.72;63.61